sensor_id;sensor_type;location;lat;lon;timestamp;P1;durP1;ratioP1;P2;durP2;ratioP2
62709;SDS011;48770;51.624;5.886;2023-11-21T00:01:38;2.58;;;1.45;;
62709;SDS011;48770;51.624;5.886;2023-11-21T00:04:03;3.28;;;1.20;;
62709;SDS011;48770;51.624;5.886;2023-11-21T00:06:28;1.50;;;1.30;;
62709;SDS011;48770;51.624;5.886;2023-11-21T00:08:55;1.88;;;0.98;;
62709;SDS011;48770;51.624;5.886;2023-11-21T00:11:21;2.40;;;1.05;;
62709;SDS011;48770;51.624;5.886;2023-11-21T00:13:46;1.33;;;1.10;;
62709;SDS011;48770;51.624;5.886;2023-11-21T00:16:11;2.55;;;1.30;;
62709;SDS011;48770;51.624;5.886;2023-11-21T00:18:37;1.38;;;1.17;;
62709;SDS011;48770;51.624;5.886;2023-11-21T00:21:02;1.35;;;1.00;;
62709;SDS011;48770;51.624;5.886;2023-11-21T00:23:28;2.50;;;1.50;;
62709;SDS011;48770;51.624;5.886;2023-11-21T00:25:54;1.58;;;1.10;;
62709;SDS011;48770;51.624;5.886;2023-11-21T00:28:19;1.88;;;1.30;;
62709;SDS011;48770;51.624;5.886;2023-11-21T00:30:44;2.38;;;1.17;;
62709;SDS011;48770;51.624;5.886;2023-11-21T00:33:10;2.22;;;1.00;;
62709;SDS011;48770;51.624;5.886;2023-11-21T00:35:36;1.52;;;1.15;;
62709;SDS011;48770;51.624;5.886;2023-11-21T00:38:01;2.25;;;1.20;;
62709;SDS011;48770;51.624;5.886;2023-11-21T00:40:28;1.38;;;1.27;;
62709;SDS011;48770;51.624;5.886;2023-11-21T00:42:53;1.65;;;1.27;;
62709;SDS011;48770;51.624;5.886;2023-11-21T00:45:19;2.13;;;1.40;;
62709;SDS011;48770;51.624;5.886;2023-11-21T00:47:44;1.98;;;1.60;;
62709;SDS011;48770;51.624;5.886;2023-11-21T00:50:09;2.08;;;1.55;;
62709;SDS011;48770;51.624;5.886;2023-11-21T00:52:35;1.42;;;1.17;;
62709;SDS011;48770;51.624;5.886;2023-11-21T00:55:01;1.73;;;1.20;;
62709;SDS011;48770;51.624;5.886;2023-11-21T00:57:27;1.73;;;1.45;;
62709;SDS011;48770;51.624;5.886;2023-11-21T00:59:53;1.73;;;1.20;;
62709;SDS011;48770;51.624;5.886;2023-11-21T01:02:19;2.40;;;1.30;;
62709;SDS011;48770;51.624;5.886;2023-11-21T01:04:45;1.70;;;1.30;;
62709;SDS011;48770;51.624;5.886;2023-11-21T01:07:10;1.83;;;1.30;;
62709;SDS011;48770;51.624;5.886;2023-11-21T01:09:35;2.03;;;1.48;;
62709;SDS011;48770;51.624;5.886;2023-11-21T01:12:00;1.20;;;1.10;;
62709;SDS011;48770;51.624;5.886;2023-11-21T01:14:26;1.95;;;1.20;;
62709;SDS011;48770;51.624;5.886;2023-11-21T01:16:52;1.85;;;1.48;;
62709;SDS011;48770;51.624;5.886;2023-11-21T01:19:17;3.40;;;1.10;;
62709;SDS011;48770;51.624;5.886;2023-11-21T01:21:43;1.45;;;1.05;;
62709;SDS011;48770;51.624;5.886;2023-11-21T01:24:08;1.75;;;1.20;;
62709;SDS011;48770;51.624;5.886;2023-11-21T01:26:34;1.52;;;1.05;;
62709;SDS011;48770;51.624;5.886;2023-11-21T01:28:59;1.38;;;1.02;;
62709;SDS011;48770;51.624;5.886;2023-11-21T01:31:24;1.13;;;1.02;;
62709;SDS011;48770;51.624;5.886;2023-11-21T01:33:54;1.30;;;1.05;;
62709;SDS011;48770;51.624;5.886;2023-11-21T01:36:20;1.83;;;1.02;;
62709;SDS011;48770;51.624;5.886;2023-11-21T01:38:46;1.80;;;0.80;;
62709;SDS011;48770;51.624;5.886;2023-11-21T01:41:13;1.40;;;1.08;;
62709;SDS011;48770;51.624;5.886;2023-11-21T01:43:39;1.02;;;0.95;;
62709;SDS011;48770;51.624;5.886;2023-11-21T01:46:04;1.88;;;1.13;;
62709;SDS011;48770;51.624;5.886;2023-11-21T01:48:31;1.30;;;0.90;;
62709;SDS011;48770;51.624;5.886;2023-11-21T01:50:57;1.67;;;1.20;;
62709;SDS011;48770;51.624;5.886;2023-11-21T01:53:24;1.13;;;0.80;;
62709;SDS011;48770;51.624;5.886;2023-11-21T01:55:51;1.17;;;0.80;;
62709;SDS011;48770;51.624;5.886;2023-11-21T01:58:16;1.05;;;0.85;;
62709;SDS011;48770;51.624;5.886;2023-11-21T02:00:42;1.20;;;0.82;;
62709;SDS011;48770;51.624;5.886;2023-11-21T02:03:08;1.30;;;0.80;;
62709;SDS011;48770;51.624;5.886;2023-11-21T02:05:35;1.45;;;0.77;;
62709;SDS011;48770;51.624;5.886;2023-11-21T02:08:00;1.30;;;0.90;;
62709;SDS011;48770;51.624;5.886;2023-11-21T02:10:27;1.67;;;1.23;;
62709;SDS011;48770;51.624;5.886;2023-11-21T02:12:54;1.20;;;0.90;;
62709;SDS011;48770;51.624;5.886;2023-11-21T02:15:21;1.73;;;1.25;;
62709;SDS011;48770;51.624;5.886;2023-11-21T02:17:48;2.08;;;0.93;;
62709;SDS011;48770;51.624;5.886;2023-11-21T02:20:16;1.13;;;0.90;;
62709;SDS011;48770;51.624;5.886;2023-11-21T02:22:43;1.30;;;1.00;;
62709;SDS011;48770;51.624;5.886;2023-11-21T02:25:22;0.95;;;0.70;;
62709;SDS011;48770;51.624;5.886;2023-11-21T02:27:48;0.98;;;0.77;;
62709;SDS011;48770;51.624;5.886;2023-11-21T02:30:14;2.58;;;1.13;;
62709;SDS011;48770;51.624;5.886;2023-11-21T02:32:41;1.58;;;1.20;;
62709;SDS011;48770;51.624;5.886;2023-11-21T02:35:08;1.48;;;1.15;;
62709;SDS011;48770;51.624;5.886;2023-11-21T02:37:34;1.65;;;1.17;;
62709;SDS011;48770;51.624;5.886;2023-11-21T02:40:00;1.20;;;1.02;;
62709;SDS011;48770;51.624;5.886;2023-11-21T02:42:28;0.93;;;0.77;;
62709;SDS011;48770;51.624;5.886;2023-11-21T02:44:54;1.38;;;1.00;;
62709;SDS011;48770;51.624;5.886;2023-11-21T02:47:19;1.30;;;0.90;;
62709;SDS011;48770;51.624;5.886;2023-11-21T02:49:44;1.50;;;1.20;;
62709;SDS011;48770;51.624;5.886;2023-11-21T02:52:10;2.58;;;1.00;;
62709;SDS011;48770;51.624;5.886;2023-11-21T02:54:35;1.10;;;1.00;;
62709;SDS011;48770;51.624;5.886;2023-11-21T02:57:01;1.15;;;0.75;;
62709;SDS011;48770;51.624;5.886;2023-11-21T02:59:27;0.95;;;0.75;;
62709;SDS011;48770;51.624;5.886;2023-11-21T03:01:52;1.00;;;0.70;;
62709;SDS011;48770;51.624;5.886;2023-11-21T03:04:18;1.27;;;0.95;;
62709;SDS011;48770;51.624;5.886;2023-11-21T03:06:44;1.30;;;0.75;;
62709;SDS011;48770;51.624;5.886;2023-11-21T03:09:10;1.13;;;0.90;;
62709;SDS011;48770;51.624;5.886;2023-11-21T03:11:39;1.42;;;1.00;;
62709;SDS011;48770;51.624;5.886;2023-11-21T03:14:04;1.02;;;0.80;;
62709;SDS011;48770;51.624;5.886;2023-11-21T03:16:30;0.93;;;0.80;;
62709;SDS011;48770;51.624;5.886;2023-11-21T03:18:56;1.25;;;0.82;;
62709;SDS011;48770;51.624;5.886;2023-11-21T03:21:21;1.20;;;0.70;;
62709;SDS011;48770;51.624;5.886;2023-11-21T03:23:47;1.92;;;1.17;;
62709;SDS011;48770;51.624;5.886;2023-11-21T03:26:12;0.70;;;0.70;;
62709;SDS011;48770;51.624;5.886;2023-11-21T03:28:38;1.20;;;0.90;;
62709;SDS011;48770;51.624;5.886;2023-11-21T03:31:03;0.90;;;0.80;;
62709;SDS011;48770;51.624;5.886;2023-11-21T03:33:29;1.88;;;1.10;;
62709;SDS011;48770;51.624;5.886;2023-11-21T03:35:54;1.05;;;0.95;;
62709;SDS011;48770;51.624;5.886;2023-11-21T03:38:19;1.60;;;0.93;;
62709;SDS011;48770;51.624;5.886;2023-11-21T03:40:45;1.52;;;1.08;;
62709;SDS011;48770;51.624;5.886;2023-11-21T03:43:10;1.02;;;0.70;;
62709;SDS011;48770;51.624;5.886;2023-11-21T03:45:36;1.13;;;1.00;;
62709;SDS011;48770;51.624;5.886;2023-11-21T03:48:01;0.90;;;0.90;;
62709;SDS011;48770;51.624;5.886;2023-11-21T03:50:28;0.80;;;0.75;;
62709;SDS011;48770;51.624;5.886;2023-11-21T03:52:54;1.00;;;0.75;;
62709;SDS011;48770;51.624;5.886;2023-11-21T03:55:19;1.20;;;0.93;;
62709;SDS011;48770;51.624;5.886;2023-11-21T03:57:44;0.85;;;0.70;;
62709;SDS011;48770;51.624;5.886;2023-11-21T04:00:10;2.17;;;0.82;;
62709;SDS011;48770;51.624;5.886;2023-11-21T04:02:36;0.85;;;0.65;;
62709;SDS011;48770;51.624;5.886;2023-11-21T04:05:01;1.27;;;0.95;;
62709;SDS011;48770;51.624;5.886;2023-11-21T04:07:26;1.23;;;0.93;;
62709;SDS011;48770;51.624;5.886;2023-11-21T04:09:52;0.65;;;0.60;;
62709;SDS011;48770;51.624;5.886;2023-11-21T04:12:18;0.80;;;0.70;;
62709;SDS011;48770;51.624;5.886;2023-11-21T04:14:43;1.83;;;1.00;;
62709;SDS011;48770;51.624;5.886;2023-11-21T04:17:09;0.73;;;0.70;;
62709;SDS011;48770;51.624;5.886;2023-11-21T04:19:34;1.05;;;0.77;;
62709;SDS011;48770;51.624;5.886;2023-11-21T04:21:59;0.85;;;0.80;;
62709;SDS011;48770;51.624;5.886;2023-11-21T04:24:25;2.47;;;0.98;;
62709;SDS011;48770;51.624;5.886;2023-11-21T04:26:50;1.05;;;0.95;;
62709;SDS011;48770;51.624;5.886;2023-11-21T04:29:16;0.80;;;0.80;;
62709;SDS011;48770;51.624;5.886;2023-11-21T04:31:41;0.70;;;0.70;;
62709;SDS011;48770;51.624;5.886;2023-11-21T04:34:07;0.93;;;0.77;;
62709;SDS011;48770;51.624;5.886;2023-11-21T04:36:33;0.73;;;0.70;;
62709;SDS011;48770;51.624;5.886;2023-11-21T04:38:59;0.80;;;0.70;;
62709;SDS011;48770;51.624;5.886;2023-11-21T04:41:25;0.70;;;0.70;;
62709;SDS011;48770;51.624;5.886;2023-11-21T04:43:50;1.13;;;0.90;;
62709;SDS011;48770;51.624;5.886;2023-11-21T04:46:15;0.85;;;0.80;;
62709;SDS011;48770;51.624;5.886;2023-11-21T04:48:41;0.80;;;0.70;;
62709;SDS011;48770;51.624;5.886;2023-11-21T04:51:06;1.00;;;0.82;;
62709;SDS011;48770;51.624;5.886;2023-11-21T04:53:31;0.60;;;0.60;;
62709;SDS011;48770;51.624;5.886;2023-11-21T04:55:57;0.73;;;0.73;;
62709;SDS011;48770;51.624;5.886;2023-11-21T04:58:22;0.90;;;0.70;;
62709;SDS011;48770;51.624;5.886;2023-11-21T05:00:48;0.98;;;0.63;;
62709;SDS011;48770;51.624;5.886;2023-11-21T05:03:14;0.80;;;0.60;;
62709;SDS011;48770;51.624;5.886;2023-11-21T05:05:40;0.80;;;0.60;;
62709;SDS011;48770;51.624;5.886;2023-11-21T05:08:05;0.90;;;0.80;;
62709;SDS011;48770;51.624;5.886;2023-11-21T05:10:30;1.00;;;0.80;;
62709;SDS011;48770;51.624;5.886;2023-11-21T05:12:56;0.63;;;0.63;;
62709;SDS011;48770;51.624;5.886;2023-11-21T05:15:21;0.90;;;0.80;;
62709;SDS011;48770;51.624;5.886;2023-11-21T05:17:46;0.73;;;0.70;;
62709;SDS011;48770;51.624;5.886;2023-11-21T05:20:15;0.85;;;0.80;;
62709;SDS011;48770;51.624;5.886;2023-11-21T05:22:45;1.20;;;0.90;;
62709;SDS011;48770;51.624;5.886;2023-11-21T05:25:11;0.70;;;0.70;;
62709;SDS011;48770;51.624;5.886;2023-11-21T05:27:36;0.80;;;0.73;;
62709;SDS011;48770;51.624;5.886;2023-11-21T05:30:02;0.73;;;0.65;;
62709;SDS011;48770;51.624;5.886;2023-11-21T05:32:31;1.13;;;0.82;;
62709;SDS011;48770;51.624;5.886;2023-11-21T05:34:58;0.70;;;0.60;;
62709;SDS011;48770;51.624;5.886;2023-11-21T05:37:23;0.82;;;0.60;;
62709;SDS011;48770;51.624;5.886;2023-11-21T05:39:49;0.95;;;0.68;;
62709;SDS011;48770;51.624;5.886;2023-11-21T05:42:14;0.82;;;0.60;;
62709;SDS011;48770;51.624;5.886;2023-11-21T05:44:43;0.80;;;0.70;;
62709;SDS011;48770;51.624;5.886;2023-11-21T05:47:08;2.33;;;0.85;;
62709;SDS011;48770;51.624;5.886;2023-11-21T05:49:33;1.02;;;0.88;;
62709;SDS011;48770;51.624;5.886;2023-11-21T05:51:59;0.85;;;0.63;;
62709;SDS011;48770;51.624;5.886;2023-11-21T05:54:25;0.57;;;0.57;;
62709;SDS011;48770;51.624;5.886;2023-11-21T05:56:51;0.80;;;0.70;;
62709;SDS011;48770;51.624;5.886;2023-11-21T05:59:16;1.13;;;0.80;;
62709;SDS011;48770;51.624;5.886;2023-11-21T06:01:41;0.98;;;0.85;;
62709;SDS011;48770;51.624;5.886;2023-11-21T06:04:07;1.02;;;0.80;;
62709;SDS011;48770;51.624;5.886;2023-11-21T06:06:35;0.77;;;0.70;;
62709;SDS011;48770;51.624;5.886;2023-11-21T06:09:01;0.90;;;0.73;;
62709;SDS011;48770;51.624;5.886;2023-11-21T06:11:27;0.70;;;0.55;;
62709;SDS011;48770;51.624;5.886;2023-11-21T06:13:52;0.75;;;0.60;;
62709;SDS011;48770;51.624;5.886;2023-11-21T06:16:18;0.60;;;0.50;;
62709;SDS011;48770;51.624;5.886;2023-11-21T06:18:45;0.80;;;0.57;;
62709;SDS011;48770;51.624;5.886;2023-11-21T06:21:11;0.90;;;0.80;;
62709;SDS011;48770;51.624;5.886;2023-11-21T06:23:36;0.77;;;0.60;;
62709;SDS011;48770;51.624;5.886;2023-11-21T06:26:02;0.90;;;0.70;;
62709;SDS011;48770;51.624;5.886;2023-11-21T06:28:27;0.77;;;0.77;;
62709;SDS011;48770;51.624;5.886;2023-11-21T06:30:52;1.00;;;0.50;;
62709;SDS011;48770;51.624;5.886;2023-11-21T06:33:18;0.60;;;0.50;;
62709;SDS011;48770;51.624;5.886;2023-11-21T06:35:43;0.55;;;0.52;;
62709;SDS011;48770;51.624;5.886;2023-11-21T06:38:09;0.70;;;0.70;;
62709;SDS011;48770;51.624;5.886;2023-11-21T06:40:35;0.95;;;0.70;;
62709;SDS011;48770;51.624;5.886;2023-11-21T06:43:00;1.05;;;0.70;;
62709;SDS011;48770;51.624;5.886;2023-11-21T06:45:26;0.70;;;0.50;;
62709;SDS011;48770;51.624;5.886;2023-11-21T06:47:51;0.57;;;0.57;;
62709;SDS011;48770;51.624;5.886;2023-11-21T06:50:16;0.55;;;0.55;;
62709;SDS011;48770;51.624;5.886;2023-11-21T06:52:42;0.70;;;0.70;;
62709;SDS011;48770;51.624;5.886;2023-11-21T06:55:08;0.70;;;0.50;;
62709;SDS011;48770;51.624;5.886;2023-11-21T06:57:34;0.77;;;0.70;;
62709;SDS011;48770;51.624;5.886;2023-11-21T06:59:59;0.70;;;0.60;;
62709;SDS011;48770;51.624;5.886;2023-11-21T07:02:25;0.60;;;0.45;;
62709;SDS011;48770;51.624;5.886;2023-11-21T07:04:50;1.00;;;0.60;;
62709;SDS011;48770;51.624;5.886;2023-11-21T07:07:15;0.60;;;0.57;;
62709;SDS011;48770;51.624;5.886;2023-11-21T07:09:40;0.70;;;0.70;;
62709;SDS011;48770;51.624;5.886;2023-11-21T07:12:06;0.75;;;0.60;;
62709;SDS011;48770;51.624;5.886;2023-11-21T07:14:33;0.80;;;0.70;;
62709;SDS011;48770;51.624;5.886;2023-11-21T07:17:02;2.15;;;0.55;;
62709;SDS011;48770;51.624;5.886;2023-11-21T07:19:27;1.20;;;0.57;;
62709;SDS011;48770;51.624;5.886;2023-11-21T07:21:52;0.80;;;0.80;;
62709;SDS011;48770;51.624;5.886;2023-11-21T07:24:18;0.40;;;0.40;;
62709;SDS011;48770;51.624;5.886;2023-11-21T07:26:43;0.73;;;0.57;;
62709;SDS011;48770;51.624;5.886;2023-11-21T07:29:08;0.80;;;0.68;;
62709;SDS011;48770;51.624;5.886;2023-11-21T07:31:34;0.63;;;0.55;;
62709;SDS011;48770;51.624;5.886;2023-11-21T07:33:59;0.77;;;0.60;;
62709;SDS011;48770;51.624;5.886;2023-11-21T07:36:25;0.60;;;0.50;;
62709;SDS011;48770;51.624;5.886;2023-11-21T07:38:51;0.55;;;0.55;;
62709;SDS011;48770;51.624;5.886;2023-11-21T07:41:17;1.02;;;0.70;;
62709;SDS011;48770;51.624;5.886;2023-11-21T07:43:43;0.50;;;0.50;;
62709;SDS011;48770;51.624;5.886;2023-11-21T07:46:11;0.52;;;0.52;;
62709;SDS011;48770;51.624;5.886;2023-11-21T07:48:40;0.57;;;0.50;;
62709;SDS011;48770;51.624;5.886;2023-11-21T07:51:11;0.65;;;0.60;;
62709;SDS011;48770;51.624;5.886;2023-11-21T07:53:38;0.60;;;0.50;;
62709;SDS011;48770;51.624;5.886;2023-11-21T07:56:04;0.65;;;0.63;;
62709;SDS011;48770;51.624;5.886;2023-11-21T07:58:32;0.70;;;0.70;;
62709;SDS011;48770;51.624;5.886;2023-11-21T08:00:58;0.57;;;0.50;;
62709;SDS011;48770;51.624;5.886;2023-11-21T08:03:24;0.80;;;0.52;;
62709;SDS011;48770;51.624;5.886;2023-11-21T08:05:51;0.77;;;0.60;;
62709;SDS011;48770;51.624;5.886;2023-11-21T08:08:16;0.65;;;0.65;;
62709;SDS011;48770;51.624;5.886;2023-11-21T08:10:43;0.68;;;0.40;;
62709;SDS011;48770;51.624;5.886;2023-11-21T08:13:11;0.90;;;0.60;;
62709;SDS011;48770;51.624;5.886;2023-11-21T08:15:39;0.82;;;0.68;;
62709;SDS011;48770;51.624;5.886;2023-11-21T08:18:05;0.75;;;0.63;;
62709;SDS011;48770;51.624;5.886;2023-11-21T08:20:32;0.85;;;0.70;;
62709;SDS011;48770;51.624;5.886;2023-11-21T08:22:58;0.50;;;0.50;;
62709;SDS011;48770;51.624;5.886;2023-11-21T08:25:23;1.13;;;0.40;;
62709;SDS011;48770;51.624;5.886;2023-11-21T08:27:48;0.57;;;0.57;;
62709;SDS011;48770;51.624;5.886;2023-11-21T08:30:14;0.30;;;0.30;;
62709;SDS011;48770;51.624;5.886;2023-11-21T08:32:41;0.50;;;0.50;;
62709;SDS011;48770;51.624;5.886;2023-11-21T08:35:07;0.82;;;0.68;;
62709;SDS011;48770;51.624;5.886;2023-11-21T08:37:33;0.45;;;0.40;;
62709;SDS011;48770;51.624;5.886;2023-11-21T08:40:02;0.50;;;0.40;;
62709;SDS011;48770;51.624;5.886;2023-11-21T08:42:28;0.40;;;0.40;;
62709;SDS011;48770;51.624;5.886;2023-11-21T08:44:55;0.75;;;0.70;;
62709;SDS011;48770;51.624;5.886;2023-11-21T08:47:22;0.60;;;0.57;;
62709;SDS011;48770;51.624;5.886;2023-11-21T08:49:49;0.55;;;0.55;;
62709;SDS011;48770;51.624;5.886;2023-11-21T08:52:17;0.70;;;0.45;;
62709;SDS011;48770;51.624;5.886;2023-11-21T08:54:42;0.50;;;0.50;;
62709;SDS011;48770;51.624;5.886;2023-11-21T08:57:08;0.40;;;0.35;;
62709;SDS011;48770;51.624;5.886;2023-11-21T08:59:34;0.60;;;0.40;;
62709;SDS011;48770;51.624;5.886;2023-11-21T09:01:59;0.40;;;0.40;;
62709;SDS011;48770;51.624;5.886;2023-11-21T09:04:24;0.52;;;0.43;;
62709;SDS011;48770;51.624;5.886;2023-11-21T09:06:50;0.40;;;0.40;;
62709;SDS011;48770;51.624;5.886;2023-11-21T09:09:15;0.60;;;0.32;;
62709;SDS011;48770;51.624;5.886;2023-11-21T09:11:40;0.38;;;0.30;;
62709;SDS011;48770;51.624;5.886;2023-11-21T09:14:06;0.52;;;0.40;;
62709;SDS011;48770;51.624;5.886;2023-11-21T09:16:31;1.10;;;0.40;;
62709;SDS011;48770;51.624;5.886;2023-11-21T09:18:56;0.50;;;0.50;;
62709;SDS011;48770;51.624;5.886;2023-11-21T09:21:24;0.50;;;0.50;;
62709;SDS011;48770;51.624;5.886;2023-11-21T09:23:50;0.40;;;0.40;;
62709;SDS011;48770;51.624;5.886;2023-11-21T09:26:16;0.40;;;0.40;;
62709;SDS011;48770;51.624;5.886;2023-11-21T09:28:43;0.50;;;0.50;;
62709;SDS011;48770;51.624;5.886;2023-11-21T09:31:12;0.40;;;0.38;;
62709;SDS011;48770;51.624;5.886;2023-11-21T09:33:38;0.55;;;0.50;;
62709;SDS011;48770;51.624;5.886;2023-11-21T09:36:04;0.40;;;0.40;;
62709;SDS011;48770;51.624;5.886;2023-11-21T09:38:30;0.43;;;0.43;;
62709;SDS011;48770;51.624;5.886;2023-11-21T09:40:56;0.40;;;0.40;;
62709;SDS011;48770;51.624;5.886;2023-11-21T09:43:23;0.43;;;0.43;;
62709;SDS011;48770;51.624;5.886;2023-11-21T09:45:54;0.65;;;0.50;;
62709;SDS011;48770;51.624;5.886;2023-11-21T09:48:24;0.45;;;0.40;;
62709;SDS011;48770;51.624;5.886;2023-11-21T09:50:51;0.28;;;0.28;;
62709;SDS011;48770;51.624;5.886;2023-11-21T09:53:19;0.50;;;0.50;;
62709;SDS011;48770;51.624;5.886;2023-11-21T09:55:53;0.52;;;0.40;;
62709;SDS011;48770;51.624;5.886;2023-11-21T09:58:19;0.60;;;0.60;;
62709;SDS011;48770;51.624;5.886;2023-11-21T10:00:48;0.47;;;0.30;;
62709;SDS011;48770;51.624;5.886;2023-11-21T10:03:15;0.65;;;0.65;;
62709;SDS011;48770;51.624;5.886;2023-11-21T10:05:45;0.50;;;0.40;;
62709;SDS011;48770;51.624;5.886;2023-11-21T10:08:11;0.47;;;0.40;;
62709;SDS011;48770;51.624;5.886;2023-11-21T10:10:38;0.30;;;0.30;;
62709;SDS011;48770;51.624;5.886;2023-11-21T10:13:10;0.47;;;0.32;;
62709;SDS011;48770;51.624;5.886;2023-11-21T10:15:37;0.52;;;0.40;;
62709;SDS011;48770;51.624;5.886;2023-11-21T10:18:03;0.30;;;0.30;;
62709;SDS011;48770;51.624;5.886;2023-11-21T10:20:31;0.30;;;0.30;;
62709;SDS011;48770;51.624;5.886;2023-11-21T10:22:57;0.40;;;0.38;;
62709;SDS011;48770;51.624;5.886;2023-11-21T10:25:22;0.30;;;0.30;;
62709;SDS011;48770;51.624;5.886;2023-11-21T10:27:48;0.50;;;0.30;;
62709;SDS011;48770;51.624;5.886;2023-11-21T10:30:16;0.40;;;0.40;;
62709;SDS011;48770;51.624;5.886;2023-11-21T10:32:42;0.40;;;0.40;;
62709;SDS011;48770;51.624;5.886;2023-11-21T10:35:08;0.30;;;0.30;;
62709;SDS011;48770;51.624;5.886;2023-11-21T10:37:37;0.65;;;0.40;;
62709;SDS011;48770;51.624;5.886;2023-11-21T10:40:08;0.30;;;0.30;;
62709;SDS011;48770;51.624;5.886;2023-11-21T10:42:38;0.40;;;0.40;;
62709;SDS011;48770;51.624;5.886;2023-11-21T10:45:04;0.40;;;0.30;;
62709;SDS011;48770;51.624;5.886;2023-11-21T10:47:36;0.30;;;0.30;;
62709;SDS011;48770;51.624;5.886;2023-11-21T10:50:03;0.40;;;0.40;;
62709;SDS011;48770;51.624;5.886;2023-11-21T10:52:29;0.30;;;0.28;;
62709;SDS011;48770;51.624;5.886;2023-11-21T10:54:54;0.30;;;0.30;;
62709;SDS011;48770;51.624;5.886;2023-11-21T10:57:19;0.20;;;0.20;;
62709;SDS011;48770;51.624;5.886;2023-11-21T10:59:48;0.38;;;0.32;;
62709;SDS011;48770;51.624;5.886;2023-11-21T11:04:57;0.30;;;0.30;;
62709;SDS011;48770;51.624;5.886;2023-11-21T11:07:25;0.38;;;0.30;;
62709;SDS011;48770;51.624;5.886;2023-11-21T11:09:55;0.28;;;0.25;;
62709;SDS011;48770;51.624;5.886;2023-11-21T11:12:21;0.43;;;0.43;;
62709;SDS011;48770;51.624;5.886;2023-11-21T11:14:47;0.45;;;0.30;;
62709;SDS011;48770;51.624;5.886;2023-11-21T11:17:13;0.30;;;0.30;;
62709;SDS011;48770;51.624;5.886;2023-11-21T11:19:39;0.30;;;0.30;;
62709;SDS011;48770;51.624;5.886;2023-11-21T11:22:24;0.38;;;0.38;;
62709;SDS011;48770;51.624;5.886;2023-11-21T11:33:08;0.43;;;0.32;;
62709;SDS011;48770;51.624;5.886;2023-11-21T11:38:16;0.25;;;0.20;;
62709;SDS011;48770;51.624;5.886;2023-11-21T11:40:46;0.30;;;0.30;;
62709;SDS011;48770;51.624;5.886;2023-11-21T11:43:12;0.32;;;0.30;;
62709;SDS011;48770;51.624;5.886;2023-11-21T11:45:38;0.20;;;0.20;;
62709;SDS011;48770;51.624;5.886;2023-11-21T11:48:07;0.32;;;0.32;;
62709;SDS011;48770;51.624;5.886;2023-11-21T11:50:33;0.38;;;0.20;;
62709;SDS011;48770;51.624;5.886;2023-11-21T11:53:15;0.30;;;0.30;;
62709;SDS011;48770;51.624;5.886;2023-11-21T11:55:41;0.30;;;0.30;;
62709;SDS011;48770;51.624;5.886;2023-11-21T11:58:06;0.25;;;0.25;;
62709;SDS011;48770;51.624;5.886;2023-11-21T12:00:33;0.40;;;0.30;;
62709;SDS011;48770;51.624;5.886;2023-11-21T12:03:02;0.22;;;0.22;;
62709;SDS011;48770;51.624;5.886;2023-11-21T12:05:29;0.30;;;0.30;;
62709;SDS011;48770;51.624;5.886;2023-11-21T12:08:04;0.20;;;0.20;;
62709;SDS011;48770;51.624;5.886;2023-11-21T12:10:33;0.45;;;0.28;;
62709;SDS011;48770;51.624;5.886;2023-11-21T12:13:05;2.25;;;0.40;;
62709;SDS011;48770;51.624;5.886;2023-11-21T12:15:35;3.95;;;0.47;;
62709;SDS011;48770;51.624;5.886;2023-11-21T12:18:01;1.05;;;0.30;;
62709;SDS011;48770;51.624;5.886;2023-11-21T12:20:27;0.70;;;0.40;;
62709;SDS011;48770;51.624;5.886;2023-11-21T12:22:54;0.73;;;0.60;;
62709;SDS011;48770;51.624;5.886;2023-11-21T12:25:22;0.40;;;0.40;;
62709;SDS011;48770;51.624;5.886;2023-11-21T12:27:57;0.88;;;0.35;;
62709;SDS011;48770;51.624;5.886;2023-11-21T12:30:23;0.20;;;0.20;;
62709;SDS011;48770;51.624;5.886;2023-11-21T12:32:53;1.42;;;0.40;;
62709;SDS011;48770;51.624;5.886;2023-11-21T12:35:21;0.50;;;0.40;;
62709;SDS011;48770;51.624;5.886;2023-11-21T12:37:48;0.63;;;0.38;;
62709;SDS011;48770;51.624;5.886;2023-11-21T12:40:15;3.40;;;0.43;;
62709;SDS011;48770;51.624;5.886;2023-11-21T12:42:42;0.40;;;0.28;;
62709;SDS011;48770;51.624;5.886;2023-11-21T12:45:29;0.55;;;0.30;;
62709;SDS011;48770;51.624;5.886;2023-11-21T12:47:59;0.47;;;0.40;;
62709;SDS011;48770;51.624;5.886;2023-11-21T12:50:29;0.63;;;0.50;;
62709;SDS011;48770;51.624;5.886;2023-11-21T12:52:59;0.50;;;0.17;;
62709;SDS011;48770;51.624;5.886;2023-11-21T12:55:29;0.80;;;0.40;;
62709;SDS011;48770;51.624;5.886;2023-11-21T12:57:55;0.63;;;0.50;;
62709;SDS011;48770;51.624;5.886;2023-11-21T13:00:28;0.45;;;0.35;;
62709;SDS011;48770;51.624;5.886;2023-11-21T13:02:57;2.90;;;0.50;;
62709;SDS011;48770;51.624;5.886;2023-11-21T13:05:24;2.13;;;0.47;;
62709;SDS011;48770;51.624;5.886;2023-11-21T13:07:53;0.40;;;0.40;;
62709;SDS011;48770;51.624;5.886;2023-11-21T13:10:21;3.42;;;0.45;;
62709;SDS011;48770;51.624;5.886;2023-11-21T13:12:51;0.68;;;0.40;;
62709;SDS011;48770;51.624;5.886;2023-11-21T13:15:17;0.65;;;0.47;;
62709;SDS011;48770;51.624;5.886;2023-11-21T13:17:43;0.60;;;0.30;;
62709;SDS011;48770;51.624;5.886;2023-11-21T13:20:10;0.60;;;0.40;;
62709;SDS011;48770;51.624;5.886;2023-11-21T13:22:45;0.70;;;0.50;;
62709;SDS011;48770;51.624;5.886;2023-11-21T13:25:14;1.02;;;0.55;;
62709;SDS011;48770;51.624;5.886;2023-11-21T13:27:42;1.05;;;0.52;;
62709;SDS011;48770;51.624;5.886;2023-11-21T13:30:09;4.60;;;0.43;;
62709;SDS011;48770;51.624;5.886;2023-11-21T13:32:35;0.68;;;0.47;;
62709;SDS011;48770;51.624;5.886;2023-11-21T13:35:00;0.77;;;0.60;;
62709;SDS011;48770;51.624;5.886;2023-11-21T13:37:26;1.15;;;0.70;;
62709;SDS011;48770;51.624;5.886;2023-11-21T13:39:53;0.65;;;0.50;;
62709;SDS011;48770;51.624;5.886;2023-11-21T13:42:19;0.60;;;0.50;;
62709;SDS011;48770;51.624;5.886;2023-11-21T13:44:48;0.63;;;0.50;;
62709;SDS011;48770;51.624;5.886;2023-11-21T13:47:16;0.90;;;0.50;;
62709;SDS011;48770;51.624;5.886;2023-11-21T13:49:42;0.73;;;0.50;;
62709;SDS011;48770;51.624;5.886;2023-11-21T13:52:07;0.60;;;0.50;;
62709;SDS011;48770;51.624;5.886;2023-11-21T13:54:32;0.60;;;0.40;;
62709;SDS011;48770;51.624;5.886;2023-11-21T13:56:58;0.52;;;0.45;;
62709;SDS011;48770;51.624;5.886;2023-11-21T13:59:25;1.35;;;0.60;;
62709;SDS011;48770;51.624;5.886;2023-11-21T14:01:53;0.50;;;0.50;;
62709;SDS011;48770;51.624;5.886;2023-11-21T14:04:22;0.55;;;0.40;;
62709;SDS011;48770;51.624;5.886;2023-11-21T14:07:07;0.43;;;0.30;;
62709;SDS011;48770;51.624;5.886;2023-11-21T14:09:50;0.68;;;0.50;;
62709;SDS011;48770;51.624;5.886;2023-11-21T14:12:17;0.40;;;0.40;;
62709;SDS011;48770;51.624;5.886;2023-11-21T14:14:43;0.50;;;0.50;;
62709;SDS011;48770;51.624;5.886;2023-11-21T14:17:09;0.40;;;0.38;;
62709;SDS011;48770;51.624;5.886;2023-11-21T14:19:35;1.13;;;0.35;;
62709;SDS011;48770;51.624;5.886;2023-11-21T14:22:05;0.63;;;0.50;;
62709;SDS011;48770;51.624;5.886;2023-11-21T14:24:30;0.50;;;0.50;;
62709;SDS011;48770;51.624;5.886;2023-11-21T14:26:57;0.35;;;0.35;;
62709;SDS011;48770;51.624;5.886;2023-11-21T14:29:22;0.47;;;0.40;;
62709;SDS011;48770;51.624;5.886;2023-11-21T14:31:48;0.73;;;0.50;;
62709;SDS011;48770;51.624;5.886;2023-11-21T14:34:16;0.40;;;0.30;;
62709;SDS011;48770;51.624;5.886;2023-11-21T14:36:42;0.40;;;0.32;;
62709;SDS011;48770;51.624;5.886;2023-11-21T14:39:09;0.65;;;0.40;;
62709;SDS011;48770;51.624;5.886;2023-11-21T14:41:46;0.20;;;0.20;;
62709;SDS011;48770;51.624;5.886;2023-11-21T14:44:11;0.55;;;0.40;;
62709;SDS011;48770;51.624;5.886;2023-11-21T14:46:38;0.75;;;0.40;;
62709;SDS011;48770;51.624;5.886;2023-11-21T14:49:05;0.30;;;0.28;;
62709;SDS011;48770;51.624;5.886;2023-11-21T14:51:48;0.40;;;0.35;;
62709;SDS011;48770;51.624;5.886;2023-11-21T14:54:25;0.22;;;0.20;;
62709;SDS011;48770;51.624;5.886;2023-11-21T14:57:08;0.60;;;0.30;;
62709;SDS011;48770;51.624;5.886;2023-11-21T14:59:43;0.40;;;0.38;;